Time;durP1;ratioP1;P1;durP2;ratioP2;P2;SDS_P1;SDS_P2;PMS_P1;PMS_P2;Temp;Humidity;BMP_temperature;BMP_pressure;BME280_temperature;BME280_humidity;BME280_pressure;Samples;Min_cycle;Max_cycle;Signal;HPM_P1;HPM_P2
2024/01/06 00:02:08;;;;;;;0.50;0.50;;;;;;;2.40;96.05;99771.84;5014796;28;20498;-77
2024/01/06 00:04:33;;;;;;;0.60;0.60;;;;;;;2.51;95.95;99775.66;5014247;28;20041;-78
2024/01/06 00:06:58;;;;;;;0.93;0.93;;;;;;;2.65;96.14;99765.56;5031730;28;20037;-77
2024/01/06 00:09:25;;;;;;;1.33;1.23;;;;;;;2.67;94.93;99774.00;5030558;28;20537;-78
2024/01/06 00:11:51;;;;;;;1.35;1.25;;;;;;;2.58;94.52;99776.72;4998467;28;20490;-77
2024/01/06 00:14:16;;;;;;;0.77;0.75;;;;;;;2.63;95.78;99789.78;5030870;28;20044;-77
2024/01/06 00:16:42;;;;;;;0.75;0.60;;;;;;;2.62;95.16;99787.47;5012680;28;20044;-78
2024/01/06 00:19:07;;;;;;;0.77;0.77;;;;;;;2.63;95.76;99787.13;5016115;28;20110;-76
2024/01/06 00:21:32;;;;;;;6.28;1.98;;;;;;;2.75;95.52;99783.75;4997960;28;20038;-77
2024/01/06 00:23:58;;;;;;;0.50;0.50;;;;;;;2.78;94.93;99791.09;5013428;28;20556;-78
2024/01/06 00:26:27;;;;;;;1.05;0.73;;;;;;;2.78;94.92;99783.13;5030728;28;20086;-77
2024/01/06 00:28:52;;;;;;;0.95;0.60;;;;;;;2.80;94.50;99783.59;5031460;28;20510;-77
2024/01/06 00:31:18;;;;;;;1.58;1.48;;;;;;;2.77;94.75;99788.78;5014799;28;20115;-76
2024/01/06 00:33:43;;;;;;;1.58;1.08;;;;;;;2.69;94.57;99785.84;5029251;28;20043;-77
2024/01/06 00:36:09;;;;;;;0.98;0.95;;;;;;;2.67;95.20;99795.25;5029925;28;20106;-77
2024/01/06 00:38:35;;;;;;;0.50;0.50;;;;;;;2.45;96.34;99800.84;5014299;28;20324;-77
2024/01/06 00:41:01;;;;;;;1.33;1.23;;;;;;;2.66;95.22;99793.69;5014020;28;20085;-76
2024/01/06 00:43:26;;;;;;;2.05;0.88;;;;;;;2.43;95.78;99793.22;5031122;28;20133;-76
2024/01/06 00:45:52;;;;;;;0.77;0.77;;;;;;;2.46;96.72;99789.13;5029688;28;20107;-77
2024/01/06 00:48:17;;;;;;;0.82;0.82;;;;;;;2.46;96.50;99797.88;5031085;28;20037;-77
2024/01/06 00:50:43;;;;;;;1.50;1.10;;;;;;;2.53;96.08;99798.16;4995428;28;20029;-77
2024/01/06 00:53:10;;;;;;;1.10;0.75;;;;;;;2.51;96.56;99794.25;5013004;28;20030;-76
2024/01/06 00:55:35;;;;;;;0.80;0.80;;;;;;;2.61;95.89;99796.53;5031376;28;20041;-77
2024/01/06 00:58:01;;;;;;;0.70;0.63;;;;;;;2.61;94.96;99796.53;4998446;28;21995;-77
2024/01/06 01:00:27;;;;;;;0.95;0.95;;;;;;;2.48;95.68;99790.38;4997412;28;20045;-76
2024/01/06 01:02:52;;;;;;;1.55;1.08;;;;;;;2.60;96.16;99797.63;5014279;28;20109;-77
2024/01/06 01:05:18;;;;;;;1.65;1.27;;;;;;;2.46;96.54;99799.75;5026514;28;20048;-77
2024/01/06 01:07:44;;;;;;;1.23;0.73;;;;;;;2.74;95.51;99804.28;5015955;28;20041;-77
2024/01/06 01:10:10;;;;;;;0.55;0.55;;;;;;;2.63;95.66;99807.63;5015095;28;20187;-77
2024/01/06 01:12:36;;;;;;;1.15;0.68;;;;;;;2.58;96.18;99805.16;5050166;28;20497;-77
2024/01/06 01:15:02;;;;;;;0.55;0.50;;;;;;;2.77;95.32;99805.47;5026076;28;20088;-77
2024/01/06 01:17:27;;;;;;;1.83;1.55;;;;;;;2.85;94.98;99817.16;5027553;28;20151;-76
2024/01/06 01:19:52;;;;;;;1.85;0.80;;;;;;;2.71;94.86;99814.75;5034340;28;20498;-76
2024/01/06 01:22:18;;;;;;;0.77;0.77;;;;;;;2.70;95.47;99821.97;5026404;28;20033;-77
2024/01/06 01:24:43;;;;;;;0.35;0.35;;;;;;;2.64;95.57;99823.25;5045528;28;20114;-77
2024/01/06 01:27:09;;;;;;;0.90;0.90;;;;;;;2.78;94.68;99830.19;5027324;28;20370;-77
2024/01/06 01:29:36;;;;;;;2.13;0.77;;;;;;;2.86;94.26;99840.78;5029869;28;20035;-76
2024/01/06 01:32:01;;;;;;;1.50;1.33;;;;;;;2.73;94.42;99839.13;5038520;28;20120;-77
2024/01/06 01:34:27;;;;;;;1.98;1.50;;;;;;;2.84;94.90;99844.84;5046874;28;20040;-77
2024/01/06 01:36:52;;;;;;;0.40;0.40;;;;;;;2.85;94.86;99839.19;5020901;28;20402;-77
2024/01/06 01:39:17;;;;;;;1.13;1.10;;;;;;;2.82;94.75;99847.84;5045329;28;20489;-77
2024/01/06 01:41:43;;;;;;;0.75;0.75;;;;;;;2.74;95.03;99854.75;5030881;28;20409;-77
2024/01/06 01:44:08;;;;;;;0.82;0.82;;;;;;;2.77;95.03;99861.28;5045992;28;20428;-76
2024/01/06 01:46:34;;;;;;;0.85;0.85;;;;;;;2.91;94.79;99853.06;5048382;28;20033;-75
2024/01/06 01:49:01;;;;;;;1.45;1.35;;;;;;;3.00;94.81;99846.59;5044137;28;20460;-75
2024/01/06 01:51:29;;;;;;;0.80;0.80;;;;;;;2.94;94.19;99853.22;5046519;28;20033;-74
2024/01/06 01:53:56;;;;;;;0.60;0.60;;;;;;;3.02;94.63;99860.34;5047077;28;20044;-75
2024/01/06 01:56:22;;;;;;;0.88;0.88;;;;;;;3.15;94.10;99853.22;5025278;28;20099;-75
2024/01/06 01:58:48;;;;;;;0.95;0.95;;;;;;;2.92;93.66;99855.44;4996112;28;20029;-76
2024/01/06 02:01:15;;;;;;;0.90;0.85;;;;;;;2.85;94.20;99854.38;5022923;28;20052;-76
2024/01/06 02:03:43;;;;;;;0.50;0.50;;;;;;;2.74;94.49;99846.00;5029357;28;20037;-76
2024/01/06 02:06:10;;;;;;;0.88;0.88;;;;;;;2.95;94.76;99848.66;5043918;28;20119;-76
2024/01/06 02:08:35;;;;;;;1.13;1.02;;;;;;;2.85;94.60;99855.16;5033385;28;20041;-76
2024/01/06 02:11:01;;;;;;;1.65;0.93;;;;;;;2.81;95.21;99853.47;5030192;28;20033;-76
2024/01/06 02:13:36;;;;;;;1.20;1.10;;;;;;;2.87;94.53;99857.47;5046838;28;20505;-76
2024/01/06 02:16:05;;;;;;;2.30;1.50;;;;;;;2.74;94.64;99856.63;5041996;28;20043;-76
2024/01/06 02:18:33;;;;;;;0.88;0.82;;;;;;;2.84;95.48;99866.91;5042939;28;20029;-75
2024/01/06 02:21:01;;;;;;;1.17;0.77;;;;;;;2.88;94.67;99873.13;5026846;28;20020;-76
2024/01/06 02:23:27;;;;;;;0.98;0.85;;;;;;;2.75;94.99;99872.25;5030574;28;20086;-76
2024/01/06 02:25:53;;;;;;;1.52;1.42;;;;;;;2.83;95.36;99883.94;5031344;28;20029;-76
2024/01/06 02:28:18;;;;;;;0.93;0.80;;;;;;;2.92;94.93;99882.03;5042030;28;20033;-76
2024/01/06 02:30:44;;;;;;;1.20;1.13;;;;;;;2.96;94.90;99885.56;5035193;28;20184;-75
2024/01/06 02:33:09;;;;;;;0.80;0.80;;;;;;;2.94;94.77;99893.09;5036206;28;20615;-76
2024/01/06 02:35:35;;;;;;;1.63;1.52;;;;;;;2.88;94.87;99894.41;5013834;28;20033;-76
2024/01/06 02:38:01;;;;;;;1.70;1.42;;;;;;;2.94;95.39;99890.44;5029615;28;20506;-76
2024/01/06 02:40:27;;;;;;;2.13;1.13;;;;;;;3.03;94.42;99888.50;5028694;28;20064;-76
2024/01/06 02:42:52;;;;;;;0.70;0.70;;;;;;;3.07;93.61;99899.28;5036055;28;20033;-76
2024/01/06 02:45:18;;;;;;;1.77;1.67;;;;;;;3.00;93.69;99897.09;5019759;28;20056;-76
2024/01/06 02:47:43;;;;;;;1.90;1.35;;;;;;;3.00;94.39;99901.69;5030957;28;20045;-76
2024/01/06 02:50:09;;;;;;;0.60;0.60;;;;;;;2.98;93.96;99896.66;5002988;28;20033;-76
2024/01/06 02:52:34;;;;;;;1.80;0.98;;;;;;;3.04;93.67;99902.59;5046687;28;20098;-76
2024/01/06 02:55:00;;;;;;;2.35;2.15;;;;;;;2.96;94.33;99904.16;5000745;28;20035;-77
2024/01/06 02:57:27;;;;;;;0.73;0.73;;;;;;;3.05;93.97;99914.75;5035254;28;20065;-77
2024/01/06 02:59:53;;;;;;;0.85;0.85;;;;;;;3.02;93.98;99907.44;5001664;28;20029;-76
2024/01/06 03:02:18;;;;;;;1.63;1.35;;;;;;;3.07;93.17;99915.22;5019781;28;20042;-76
2024/01/06 03:04:44;;;;;;;3.60;1.85;;;;;;;2.90;93.36;99918.00;5005929;28;20033;-77
2024/01/06 03:07:10;;;;;;;1.88;1.15;;;;;;;2.74;94.66;99923.88;5013084;28;20040;-76
2024/01/06 03:09:36;;;;;;;1.08;0.88;;;;;;;2.72;95.12;99923.41;5030460;28;20034;-76
2024/01/06 03:12:02;;;;;;;1.75;1.60;;;;;;;2.84;94.94;99925.38;5016275;28;20268;-76
2024/01/06 03:14:27;;;;;;;1.23;1.10;;;;;;;2.82;94.14;99922.25;5014869;28;20025;-76
2024/01/06 03:16:53;;;;;;;1.42;1.33;;;;;;;2.73;94.42;99930.25;5024644;28;20032;-76
2024/01/06 03:19:18;;;;;;;1.05;0.77;;;;;;;2.87;94.34;99927.38;5023007;28;20055;-76
2024/01/06 03:21:43;;;;;;;1.20;1.10;;;;;;;2.74;94.76;99923.88;5029594;28;20025;-76
2024/01/06 03:24:09;;;;;;;2.20;1.65;;;;;;;2.81;94.12;99927.91;5034159;28;20055;-75
2024/01/06 03:26:34;;;;;;;1.45;1.35;;;;;;;2.95;94.15;99926.56;5025643;28;20060;-77
2024/01/06 03:29:02;;;;;;;0.68;0.68;;;;;;;2.99;93.58;99935.44;5033287;28;20457;-77
2024/01/06 03:31:29;;;;;;;1.10;1.00;;;;;;;2.88;93.77;99934.28;4998893;28;20091;-77
2024/01/06 03:33:55;;;;;;;1.42;1.17;;;;;;;2.60;94.25;99933.94;5040009;28;20491;-75
2024/01/06 03:36:22;;;;;;;1.30;1.20;;;;;;;2.60;95.35;99939.25;5023593;28;20478;-76
2024/01/06 03:38:47;;;;;;;0.68;0.68;;;;;;;2.80;94.64;99937.75;5016494;28;20043;-76
2024/01/06 03:41:13;;;;;;;3.08;1.13;;;;;;;2.67;93.44;99933.44;5015825;28;20045;-76
2024/01/06 03:43:38;;;;;;;0.70;0.70;;;;;;;2.72;94.60;99938.56;5011762;28;20098;-76
2024/01/06 03:46:05;;;;;;;0.95;0.88;;;;;;;2.67;94.38;99941.41;5005122;28;20151;-76
2024/01/06 03:48:31;;;;;;;3.85;1.50;;;;;;;2.68;94.68;99946.41;5048348;28;20398;-76
2024/01/06 03:50:59;;;;;;;1.20;1.10;;;;;;;2.67;94.50;99931.53;5031363;28;20021;-76
2024/01/06 03:53:24;;;;;;;0.82;0.82;;;;;;;2.63;94.91;99940.50;5045076;28;20037;-75
2024/01/06 03:55:50;;;;;;;0.75;0.75;;;;;;;2.70;94.50;99944.22;5038589;28;20047;-76
2024/01/06 03:58:15;;;;;;;1.45;0.73;;;;;;;2.75;94.28;99935.25;5034701;28;20037;-75
2024/01/06 04:00:41;;;;;;;0.80;0.80;;;;;;;2.64;94.34;99944.69;5015023;28;20029;-76
2024/01/06 04:03:06;;;;;;;1.30;1.17;;;;;;;2.59;94.18;99947.53;5016241;28;20163;-75
2024/01/06 04:05:32;;;;;;;2.40;1.15;;;;;;;2.59;95.01;99944.88;5009661;28;20024;-75
2024/01/06 04:07:57;;;;;;;1.77;0.95;;;;;;;2.64;94.51;99960.63;5007268;28;20021;-76
2024/01/06 04:10:23;;;;;;;1.25;1.20;;;;;;;2.60;94.51;99949.88;5045326;28;20437;-76
2024/01/06 04:12:49;;;;;;;1.65;1.00;;;;;;;2.55;95.20;99951.94;5046153;28;20060;-76
2024/01/06 04:15:14;;;;;;;1.10;1.10;;;;;;;2.72;94.09;99954.50;5025332;28;20116;-76
2024/01/06 04:17:40;;;;;;;2.10;1.30;;;;;;;2.65;94.12;99968.28;5014777;28;20032;-75
2024/01/06 04:20:05;;;;;;;1.02;1.02;;;;;;;2.68;94.20;99967.66;5037870;28;20044;-75
2024/01/06 04:22:31;;;;;;;1.13;1.13;;;;;;;2.45;95.24;99968.22;5041530;28;20038;-76
2024/01/06 04:24:56;;;;;;;1.17;1.10;;;;;;;2.51;95.45;99964.28;5028100;28;20025;-76
2024/01/06 04:27:22;;;;;;;1.50;1.15;;;;;;;2.47;94.93;99966.00;5033295;28;20041;-76
2024/01/06 04:29:47;;;;;;;0.95;0.65;;;;;;;2.46;95.15;99973.19;5031499;28;20041;-76
2024/01/06 04:32:12;;;;;;;1.08;1.08;;;;;;;2.53;94.86;99970.84;5014515;28;20028;-76
2024/01/06 04:34:38;;;;;;;2.22;1.67;;;;;;;2.53;95.11;99967.41;4999271;28;20036;-78
2024/01/06 04:37:03;;;;;;;1.15;1.08;;;;;;;2.53;94.94;99970.06;5025289;28;20120;-76
2024/01/06 04:39:29;;;;;;;1.48;1.38;;;;;;;2.60;95.07;99973.78;5022259;28;20120;-76
2024/01/06 04:41:54;;;;;;;2.72;1.30;;;;;;;2.39;94.84;99969.47;5028051;28;20040;-76
2024/01/06 04:44:21;;;;;;;4.72;1.63;;;;;;;2.30;96.67;99980.13;5026980;28;20067;-76
2024/01/06 04:46:46;;;;;;;1.38;1.17;;;;;;;2.49;95.71;99985.06;5047216;28;20025;-76
2024/01/06 04:49:12;;;;;;;3.65;2.33;;;;;;;2.56;95.21;99986.16;5010299;28;20549;-75
2024/01/06 04:51:37;;;;;;;0.98;0.95;;;;;;;2.46;95.04;99996.31;5044961;28;20067;-75
2024/01/06 04:54:03;;;;;;;0.50;0.50;;;;;;;2.47;95.08;99992.59;5047193;28;20036;-75
2024/01/06 04:56:28;;;;;;;0.85;0.85;;;;;;;2.31;95.83;100000.28;5013002;28;20041;-77
2024/01/06 04:58:54;;;;;;;4.00;1.33;;;;;;;2.48;95.64;100005.53;5032360;28;20048;-77
2024/01/06 05:01:19;;;;;;;2.90;1.90;;;;;;;2.29;96.58;99996.38;5014393;28;20025;-77
2024/01/06 05:03:45;;;;;;;2.28;0.75;;;;;;;2.34;95.71;99996.22;5036051;28;20029;-77
2024/01/06 05:06:11;;;;;;;3.03;2.05;;;;;;;2.42;95.83;100001.50;5027078;28;20544;-77
2024/01/06 05:08:41;;;;;;;1.75;1.55;;;;;;;2.21;95.90;100015.75;5039968;28;20033;-76
2024/01/06 05:11:07;;;;;;;1.10;1.00;;;;;;;2.43;96.47;100008.38;5026195;28;20036;-77
2024/01/06 05:13:32;;;;;;;0.70;0.65;;;;;;;2.52;95.27;100021.63;5049674;28;20095;-77
2024/01/06 05:15:58;;;;;;;0.77;0.77;;;;;;;2.68;93.94;100022.69;5011819;28;20059;-77
2024/01/06 05:18:23;;;;;;;5.00;1.85;;;;;;;2.64;94.38;100022.53;5048499;28;20032;-77
2024/01/06 05:20:51;;;;;;;1.52;1.42;;;;;;;2.39;95.19;100027.91;5030557;28;20032;-77
2024/01/06 05:23:16;;;;;;;1.83;1.67;;;;;;;2.39;95.63;100030.56;5042681;28;20136;-76
2024/01/06 05:25:42;;;;;;;3.20;1.83;;;;;;;2.48;95.31;100037.41;5050455;28;20431;-78
2024/01/06 05:28:07;;;;;;;0.80;0.80;;;;;;;2.43;94.86;100036.81;5026217;28;20035;-78
2024/01/06 05:30:33;;;;;;;0.60;0.60;;;;;;;2.26;95.38;100040.28;5028311;28;20063;-77
2024/01/06 05:32:58;;;;;;;1.45;0.98;;;;;;;2.54;95.33;100038.81;5025903;28;20112;-77
2024/01/06 05:35:24;;;;;;;1.10;1.00;;;;;;;2.52;94.33;100042.88;5032687;28;20065;-77
2024/01/06 05:37:49;;;;;;;2.08;1.52;;;;;;;2.37;95.09;100040.72;5034939;28;20033;-76
2024/01/06 05:40:15;;;;;;;3.47;1.42;;;;;;;2.39;95.30;100049.94;5034210;28;20041;-77
2024/01/06 05:42:40;;;;;;;1.48;1.23;;;;;;;2.36;94.81;100047.91;5034451;28;20026;-77
2024/01/06 05:45:06;;;;;;;1.98;1.55;;;;;;;2.38;94.83;100055.59;5053925;28;20060;-77
2024/01/06 05:47:31;;;;;;;2.30;1.70;;;;;;;2.34;95.41;100065.28;5039013;28;20032;-77
2024/01/06 05:49:57;;;;;;;1.92;1.13;;;;;;;2.20;96.46;100062.78;5037307;28;20025;-76
2024/01/06 05:52:23;;;;;;;3.15;1.88;;;;;;;2.41;95.33;100069.00;5029379;28;20124;-77
2024/01/06 05:54:49;;;;;;;2.05;1.85;;;;;;;2.31;95.56;100071.19;5035753;28;20029;-77
2024/01/06 05:57:14;;;;;;;1.70;1.55;;;;;;;2.29;95.41;100068.84;5013037;28;20107;-77
2024/01/06 05:59:40;;;;;;;4.63;1.50;;;;;;;2.22;95.82;100083.72;5019668;28;20033;-76
2024/01/06 06:02:06;;;;;;;2.22;1.27;;;;;;;2.30;95.80;100090.91;5032827;28;20037;-77
2024/01/06 06:04:31;;;;;;;2.63;1.17;;;;;;;2.26;95.45;100092.63;5038454;28;20050;-78
2024/01/06 06:06:56;;;;;;;0.85;0.85;;;;;;;2.35;95.49;100094.16;5033073;28;20048;-77
2024/01/06 06:09:22;;;;;;;0.93;0.85;;;;;;;2.41;95.60;100105.41;5052593;28;20044;-77
2024/01/06 06:11:48;;;;;;;1.70;1.48;;;;;;;2.29;96.10;100097.28;5019241;28;20046;-77
2024/01/06 06:14:14;;;;;;;1.73;1.13;;;;;;;2.42;95.49;100117.63;5016758;28;20488;-77
2024/01/06 06:16:39;;;;;;;1.58;0.63;;;;;;;2.32;95.48;100113.38;5047821;28;20035;-77
2024/01/06 06:19:05;;;;;;;2.25;1.33;;;;;;;2.09;95.68;100119.16;5018560;28;20071;-78
2024/01/06 06:21:30;;;;;;;1.10;1.10;;;;;;;2.27;96.52;100126.03;5035751;28;20554;-76
2024/01/06 06:23:56;;;;;;;1.63;1.33;;;;;;;2.35;95.20;100133.22;5048927;28;20033;-77
2024/01/06 06:26:22;;;;;;;2.95;1.45;;;;;;;2.52;94.71;100143.84;5033561;28;20053;-77
2024/01/06 06:28:49;;;;;;;2.22;0.68;;;;;;;2.58;93.80;100139.94;5030909;28;20082;-78
2024/01/06 06:31:14;;;;;;;1.95;1.85;;;;;;;2.47;94.55;100146.66;5034503;28;20481;-77
2024/01/06 06:33:40;;;;;;;2.40;1.98;;;;;;;2.57;94.81;100149.00;5016300;28;20025;-76
2024/01/06 06:36:07;;;;;;;1.20;1.08;;;;;;;2.43;94.86;100151.03;5054675;28;20452;-76
2024/01/06 06:38:32;;;;;;;2.65;1.92;;;;;;;2.31;95.18;100150.88;5032414;28;20025;-76
2024/01/06 06:40:58;;;;;;;1.80;1.35;;;;;;;2.31;95.41;100170.25;5007300;28;20521;-77
2024/01/06 06:43:23;;;;;;;0.73;0.73;;;;;;;2.42;95.32;100170.75;5050882;28;20028;-77
2024/01/06 06:45:49;;;;;;;1.48;0.90;;;;;;;2.35;95.06;100173.06;5050530;28;20490;-77
2024/01/06 06:48:15;;;;;;;2.65;1.90;;;;;;;2.30;95.05;100181.19;5051291;28;20095;-77
2024/01/06 06:50:41;;;;;;;1.27;1.17;;;;;;;2.35;95.03;100173.06;5031241;28;20101;-77
2024/01/06 06:53:07;;;;;;;1.42;1.33;;;;;;;2.39;94.66;100182.75;5020381;28;20025;-77
2024/01/06 06:55:33;;;;;;;2.20;2.03;;;;;;;2.14;95.10;100182.72;5045387;28;20109;-77
2024/01/06 06:57:58;;;;;;;3.38;1.20;;;;;;;2.21;96.13;100181.16;5031386;28;20024;-76
2024/01/06 07:00:24;;;;;;;2.15;1.13;;;;;;;2.16;96.09;100180.53;5014573;28;20040;-76
2024/01/06 07:02:49;;;;;;;1.00;1.00;;;;;;;2.04;96.09;100185.66;5030393;28;20025;-76
2024/01/06 07:05:15;;;;;;;2.72;1.65;;;;;;;2.12;96.50;100192.88;5035485;28;20029;-76
2024/01/06 07:07:40;;;;;;;0.80;0.77;;;;;;;2.24;95.97;100191.19;5035090;28;20044;-77
2024/01/06 07:10:06;;;;;;;7.07;1.42;;;;;;;2.24;94.97;100193.84;5031865;28;20040;-76
2024/01/06 07:12:32;;;;;;;1.77;1.52;;;;;;;2.35;93.52;100202.28;5018156;28;20035;-76
2024/01/06 07:15:00;;;;;;;0.75;0.75;;;;;;;2.22;94.35;100203.22;5047551;28;20032;-77
2024/01/06 07:17:26;;;;;;;1.13;0.90;;;;;;;2.08;95.80;100213.16;5042948;28;20068;-77
2024/01/06 07:19:51;;;;;;;1.30;1.27;;;;;;;2.08;95.97;100218.47;5051410;28;20067;-79
2024/01/06 07:22:18;;;;;;;2.00;1.88;;;;;;;2.23;95.88;100221.47;5050596;28;20029;-77
2024/01/06 07:24:44;;;;;;;1.20;1.17;;;;;;;2.46;95.26;100224.78;5050235;28;20033;-77
2024/01/06 07:27:09;;;;;;;2.10;1.42;;;;;;;2.24;94.97;100235.53;5047360;28;20090;-77
2024/01/06 07:29:35;;;;;;;2.88;1.13;;;;;;;2.27;95.26;100232.25;5020954;28;20448;-77
2024/01/06 07:32:02;;;;;;;1.35;0.98;;;;;;;2.42;95.42;100245.13;5034837;28;20397;-77
2024/01/06 07:34:27;;;;;;;1.20;1.10;;;;;;;2.38;94.53;100244.94;5035012;28;20029;-77
2024/01/06 07:36:53;;;;;;;1.55;1.02;;;;;;;2.51;94.40;100248.56;5050392;28;20794;-77
2024/01/06 07:39:20;;;;;;;2.47;1.70;;;;;;;2.42;94.10;100250.44;5034463;28;20052;-77
2024/01/06 07:41:46;;;;;;;1.67;0.95;;;;;;;2.51;94.12;100256.53;5034013;28;20120;-77
2024/01/06 07:44:12;;;;;;;1.83;1.73;;;;;;;2.63;93.08;100259.38;5033618;28;20406;-77
2024/01/06 07:46:40;;;;;;;2.30;1.80;;;;;;;2.64;93.42;100260.91;5031808;28;20094;-77
2024/01/06 07:49:06;;;;;;;2.80;1.92;;;;;;;2.57;92.81;100263.25;5045878;28;20056;-77
2024/01/06 07:51:34;;;;;;;1.80;1.67;;;;;;;2.58;92.83;100262.16;5048329;28;20044;-77
2024/01/06 07:53:59;;;;;;;0.98;0.98;;;;;;;2.49;93.89;100269.34;5050733;28;20098;-77
2024/01/06 07:56:25;;;;;;;3.40;2.33;;;;;;;2.29;94.55;100268.06;5048760;28;20053;-77
2024/01/06 07:58:52;;;;;;;1.08;0.73;;;;;;;2.47;93.96;100279.50;5048351;28;20039;-77
2024/01/06 08:01:18;;;;;;;1.75;1.17;;;;;;;2.55;94.03;100282.19;5013553;28;20039;-77
2024/01/06 08:03:44;;;;;;;0.38;0.38;;;;;;;2.30;93.89;100269.63;5049007;28;20029;-77
2024/01/06 08:06:10;;;;;;;2.70;1.42;;;;;;;2.45;93.80;100281.69;5044037;28;20040;-77
2024/01/06 08:08:35;;;;;;;1.27;0.85;;;;;;;2.40;93.71;100289.81;5044042;28;20068;-77
2024/01/06 08:11:01;;;;;;;2.40;1.75;;;;;;;2.42;93.20;100284.97;5035101;28;20033;-76
2024/01/06 08:13:27;;;;;;;2.40;1.58;;;;;;;2.08;94.66;100288.28;5052532;28;20021;-76
2024/01/06 08:15:52;;;;;;;0.75;0.70;;;;;;;2.33;94.47;100300.09;5047553;28;20115;-77
2024/01/06 08:18:18;;;;;;;0.88;0.85;;;;;;;2.28;94.32;100305.53;5049333;28;20457;-77
2024/01/06 08:20:43;;;;;;;4.93;1.55;;;;;;;2.38;94.35;100307.94;5050568;28;20047;-78
2024/01/06 08:23:10;;;;;;;3.17;2.22;;;;;;;2.40;94.33;100314.47;5023620;28;20033;-77
2024/01/06 08:25:36;;;;;;;1.13;1.13;;;;;;;2.54;93.12;100317.00;5041791;28;20071;-76
2024/01/06 08:28:01;;;;;;;1.25;1.08;;;;;;;2.37;93.94;100322.28;5015656;28;20411;-76
2024/01/06 08:30:27;;;;;;;1.70;1.10;;;;;;;2.11;94.22;100332.81;5045507;28;20051;-77
2024/01/06 08:32:52;;;;;;;2.17;1.45;;;;;;;2.33;94.03;100332.75;5015412;28;20429;-77
2024/01/06 08:35:19;;;;;;;2.88;1.83;;;;;;;2.39;93.64;100342.16;5026954;28;20033;-77
2024/01/06 08:37:45;;;;;;;2.80;1.05;;;;;;;2.45;93.54;100337.47;5046795;28;20301;-77
2024/01/06 08:40:11;;;;;;;1.70;1.30;;;;;;;2.49;93.77;100355.16;5041505;28;20037;-77
2024/01/06 08:42:37;;;;;;;2.67;1.95;;;;;;;2.33;93.94;100358.50;5045207;28;20569;-77
2024/01/06 08:45:04;;;;;;;2.00;1.73;;;;;;;2.50;94.02;100350.59;5031307;28;20056;-77
2024/01/06 08:47:32;;;;;;;1.42;1.33;;;;;;;2.51;93.56;100360.16;5038908;28;20064;-77
2024/01/06 08:49:57;;;;;;;0.57;0.57;;;;;;;2.49;93.75;100363.13;5046236;28;20079;-77
2024/01/06 08:52:22;;;;;;;1.50;1.20;;;;;;;2.60;93.61;100360.94;5020665;28;20681;-77
2024/01/06 08:54:49;;;;;;;1.05;0.93;;;;;;;2.71;93.21;100359.56;5040743;28;20056;-78
2024/01/06 08:57:15;;;;;;;1.65;1.48;;;;;;;2.64;92.94;100369.88;5046382;28;20114;-78
2024/01/06 08:59:40;;;;;;;1.75;1.65;;;;;;;2.62;92.92;100374.72;5042039;28;20037;-77
2024/01/06 09:02:06;;;;;;;4.97;1.45;;;;;;;2.57;93.38;100380.97;5044037;28;20504;-77
2024/01/06 09:04:31;;;;;;;2.03;1.70;;;;;;;2.76;92.68;100378.03;5009684;28;20460;-77
2024/01/06 09:06:56;;;;;;;5.95;2.33;;;;;;;2.65;92.42;100382.09;5031038;28;20405;-77
2024/01/06 09:09:23;;;;;;;2.20;1.98;;;;;;;2.72;92.12;100387.72;5028485;28;20040;-77
2024/01/06 09:11:49;;;;;;;2.33;1.70;;;;;;;2.67;92.40;100390.53;5026435;28;20563;-77
2024/01/06 09:14:18;;;;;;;1.10;1.02;;;;;;;2.62;93.11;100395.97;5048268;28;20116;-77
2024/01/06 09:16:44;;;;;;;1.42;1.13;;;;;;;2.63;92.37;100400.22;5049765;28;20035;-77
2024/01/06 09:19:09;;;;;;;3.58;1.63;;;;;;;2.65;92.68;100395.38;5027833;28;20394;-77
2024/01/06 09:21:35;;;;;;;1.05;1.00;;;;;;;2.78;92.39;100407.75;5030299;28;20029;-77
2024/01/06 09:24:05;;;;;;;1.05;1.02;;;;;;;2.82;92.42;100408.72;5029122;28;20032;-77
2024/01/06 09:26:32;;;;;;;2.97;2.10;;;;;;;2.76;92.06;100415.25;5041959;28;20118;-77
2024/01/06 09:28:57;;;;;;;6.88;1.27;;;;;;;2.79;91.94;100414.63;5039198;28;20059;-78
2024/01/06 09:31:23;;;;;;;1.50;0.82;;;;;;;2.74;92.36;100417.44;5026787;28;20128;-77
2024/01/06 09:33:50;;;;;;;1.20;1.10;;;;;;;2.51;92.81;100439.88;5043244;28;20025;-78
2024/01/06 09:36:15;;;;;;;2.35;2.15;;;;;;;2.50;93.16;100433.75;5045358;28;20064;-77
2024/01/06 09:38:41;;;;;;;3.13;2.42;;;;;;;2.56;92.91;100434.41;5014863;28;20095;-77
2024/01/06 09:41:08;;;;;;;2.08;0.80;;;;;;;2.51;92.92;100442.53;5027399;28;20045;-77
2024/01/06 09:43:36;;;;;;;1.27;1.05;;;;;;;2.62;92.63;100441.16;5028207;28;20032;-77
2024/01/06 09:46:17;;;;;;;1.15;1.10;;;;;;;2.83;92.19;100442.16;5045327;28;20054;-77
2024/01/06 09:48:43;;;;;;;1.02;1.02;;;;;;;2.83;91.72;100447.47;5028921;28;20091;-78
2024/01/06 09:51:11;;;;;;;1.92;1.55;;;;;;;2.64;91.97;100447.72;5030812;28;20025;-77
2024/01/06 09:53:48;;;;;;;1.75;1.58;;;;;;;2.80;91.29;100456.09;5023417;28;20025;-77
2024/01/06 09:56:15;;;;;;;0.68;0.68;;;;;;;2.71;92.31;100452.59;5044230;28;20840;-77
2024/01/06 09:58:41;;;;;;;2.45;1.92;;;;;;;2.88;91.46;100450.00;5025686;28;20039;-78
2024/01/06 10:01:08;;;;;;;3.75;1.27;;;;;;;2.79;90.84;100457.16;5043646;28;20079;-77
2024/01/06 10:03:35;;;;;;;2.08;1.35;;;;;;;2.78;90.76;100462.78;5032613;28;20082;-77
2024/01/06 10:06:03;;;;;;;4.68;1.45;;;;;;;2.52;91.08;100462.66;5045346;28;20063;-79
2024/01/06 10:08:29;;;;;;;2.05;1.70;;;;;;;2.86;90.84;100462.03;5030721;28;20040;-77
2024/01/06 10:10:56;;;;;;;1.52;1.42;;;;;;;2.93;91.17;100473.00;5025961;28;20383;-77
2024/01/06 10:13:23;;;;;;;1.23;1.23;;;;;;;2.87;90.74;100488.31;5024748;28;20045;-77
2024/01/06 10:15:50;;;;;;;2.65;1.95;;;;;;;2.94;91.02;100477.25;5028279;28;20083;-77
2024/01/06 10:18:15;;;;;;;1.67;1.58;;;;;;;2.85;90.40;100485.19;5026414;28;20512;-77
2024/01/06 10:20:41;;;;;;;3.13;1.73;;;;;;;2.82;91.02;100491.13;5052498;28;20029;-78
2024/01/06 10:23:06;;;;;;;1.63;1.50;;;;;;;2.72;91.29;100484.19;5034544;28;20398;-77
2024/01/06 10:25:32;;;;;;;1.50;1.40;;;;;;;2.71;91.47;100484.47;5033718;28;20032;-77
2024/01/06 10:28:01;;;;;;;1.45;0.98;;;;;;;2.92;91.34;100490.84;5049441;28;20027;-76
2024/01/06 10:30:28;;;;;;;1.42;1.33;;;;;;;2.77;90.82;100485.91;5048295;28;20041;-77
2024/01/06 10:32:54;;;;;;;1.17;1.13;;;;;;;2.80;91.14;100495.97;5014391;28;20455;-77
2024/01/06 10:35:19;;;;;;;1.15;1.08;;;;;;;2.90;90.32;100503.66;5046227;28;20033;-77
2024/01/06 10:37:45;;;;;;;0.60;0.60;;;;;;;2.75;90.47;100496.06;5051392;28;20413;-77
2024/01/06 10:40:13;;;;;;;2.17;0.90;;;;;;;2.66;90.53;100495.25;5031690;28;20590;-77
2024/01/06 10:42:39;;;;;;;2.15;1.63;;;;;;;2.50;91.73;100502.03;5028480;28;20025;-77
2024/01/06 10:45:13;;;;;;;3.15;1.40;;;;;;;2.39;92.91;100503.41;5047915;28;20582;-77
2024/01/06 10:47:43;;;;;;;1.65;1.25;;;;;;;2.48;91.87;100509.53;5049234;28;20043;-77
2024/01/06 10:50:09;;;;;;;2.30;1.38;;;;;;;2.57;92.09;100507.72;5026019;28;20033;-77
2024/01/06 10:52:35;;;;;;;1.27;1.17;;;;;;;2.65;91.95;100518.38;5032315;28;20117;-77
2024/01/06 10:55:02;;;;;;;1.70;1.25;;;;;;;2.75;91.50;100510.16;5045669;28;20703;-77
2024/01/06 10:57:31;;;;;;;1.33;1.30;;;;;;;2.91;91.44;100515.84;5028175;28;20433;-78
2024/01/06 10:59:58;;;;;;;1.20;0.98;;;;;;;2.63;91.45;100522.47;5029023;28;20116;-77
2024/01/06 11:02:25;;;;;;;5.95;1.90;;;;;;;2.87;90.59;100525.53;5030457;28;20064;-77
2024/01/06 11:04:51;;;;;;;2.60;1.02;;;;;;;2.74;91.75;100523.75;5045030;28;20120;-77
2024/01/06 11:07:23;;;;;;;1.40;1.30;;;;;;;2.72;92.02;100525.94;5013044;28;20021;-77
2024/01/06 11:10:03;;;;;;;1.40;1.30;;;;;;;2.64;92.16;100526.66;5046894;28;20044;-77
2024/01/06 11:12:28;;;;;;;1.33;1.23;;;;;;;2.74;92.19;100523.75;5032572;28;20040;-77
2024/01/06 11:14:54;;;;;;;1.33;1.27;;;;;;;2.92;91.66;100530.72;5017269;28;20037;-77
2024/01/06 11:17:58;;;;;;;1.15;0.93;;;;;;;2.55;92.56;100520.53;5050708;28;20036;-78
2024/01/06 11:20:27;;;;;;;2.65;1.75;;;;;;;2.68;91.90;100525.78;5017724;28;20566;-77
2024/01/06 11:22:53;;;;;;;1.38;1.27;;;;;;;2.38;92.73;100531.06;5045328;28;20482;-77
2024/01/06 11:25:20;;;;;;;1.42;1.25;;;;;;;2.53;92.58;100517.41;5030818;28;20063;-77
2024/01/06 11:27:47;;;;;;;0.75;0.75;;;;;;;2.53;93.09;100526.16;5026918;28;20522;-77
2024/01/06 11:30:24;;;;;;;4.57;1.85;;;;;;;2.48;93.30;100515.63;5014002;28;20508;-78
2024/01/06 11:32:55;;;;;;;1.05;0.75;;;;;;;2.72;92.67;100516.09;5009201;28;20033;-77